sensor_id;sensor_type;location;lat;lon;timestamp;temperature;humidity
52963;DHT22;38827;53.024;6.596;2023-05-23T00:01:02;14.20;82.60
52963;DHT22;38827;53.024;6.596;2023-05-23T00:03:31;14.20;82.60
52963;DHT22;38827;53.024;6.596;2023-05-23T00:05:57;14.20;82.70
52963;DHT22;38827;53.024;6.596;2023-05-23T00:08:24;14.30;82.70
52963;DHT22;38827;53.024;6.596;2023-05-23T00:10:50;14.30;82.70
52963;DHT22;38827;53.024;6.596;2023-05-23T00:13:15;14.30;82.80
52963;DHT22;38827;53.024;6.596;2023-05-23T00:15:42;14.30;82.90
52963;DHT22;38827;53.024;6.596;2023-05-23T00:18:09;14.30;83.10
52963;DHT22;38827;53.024;6.596;2023-05-23T00:20:39;14.30;83.30
52963;DHT22;38827;53.024;6.596;2023-05-23T00:23:08;14.40;83.40
52963;DHT22;38827;53.024;6.596;2023-05-23T00:25:35;14.30;83.40
52963;DHT22;38827;53.024;6.596;2023-05-23T00:28:02;14.30;83.70
52963;DHT22;38827;53.024;6.596;2023-05-23T00:30:29;14.30;83.60
52963;DHT22;38827;53.024;6.596;2023-05-23T00:32:55;14.40;83.70
52963;DHT22;38827;53.024;6.596;2023-05-23T00:35:22;14.40;83.90
52963;DHT22;38827;53.024;6.596;2023-05-23T00:37:50;14.40;83.90
52963;DHT22;38827;53.024;6.596;2023-05-23T00:40:17;14.40;83.90
52963;DHT22;38827;53.024;6.596;2023-05-23T00:42:43;14.40;84.00
52963;DHT22;38827;53.024;6.596;2023-05-23T00:45:10;14.40;83.90
52963;DHT22;38827;53.024;6.596;2023-05-23T00:47:37;14.40;84.00
52963;DHT22;38827;53.024;6.596;2023-05-23T00:50:11;14.40;84.00
52963;DHT22;38827;53.024;6.596;2023-05-23T00:52:41;14.40;84.00
52963;DHT22;38827;53.024;6.596;2023-05-23T00:55:08;14.40;84.00
52963;DHT22;38827;53.024;6.596;2023-05-23T00:57:35;14.40;83.90
52963;DHT22;38827;53.024;6.596;2023-05-23T01:00:08;14.40;83.90
52963;DHT22;38827;53.024;6.596;2023-05-23T01:02:45;14.40;84.00
52963;DHT22;38827;53.024;6.596;2023-05-23T01:05:13;14.40;83.90
52963;DHT22;38827;53.024;6.596;2023-05-23T01:07:45;14.40;84.00
52963;DHT22;38827;53.024;6.596;2023-05-23T01:10:15;14.40;84.00
52963;DHT22;38827;53.024;6.596;2023-05-23T01:15:19;14.30;83.70
52963;DHT22;38827;53.024;6.596;2023-05-23T01:20:44;14.30;83.60
52963;DHT22;38827;53.024;6.596;2023-05-23T01:26:21;14.20;83.50
52963;DHT22;38827;53.024;6.596;2023-05-23T01:29:00;14.20;83.30
52963;DHT22;38827;53.024;6.596;2023-05-23T01:31:35;14.20;83.50
52963;DHT22;38827;53.024;6.596;2023-05-23T01:34:01;14.10;83.40
52963;DHT22;38827;53.024;6.596;2023-05-23T01:36:28;14.10;83.20
52963;DHT22;38827;53.024;6.596;2023-05-23T01:38:53;14.10;83.20
52963;DHT22;38827;53.024;6.596;2023-05-23T01:41:19;14.10;83.30
52963;DHT22;38827;53.024;6.596;2023-05-23T01:43:46;14.10;83.20
52963;DHT22;38827;53.024;6.596;2023-05-23T01:46:12;14.00;83.30
52963;DHT22;38827;53.024;6.596;2023-05-23T01:48:38;14.00;83.20
52963;DHT22;38827;53.024;6.596;2023-05-23T01:51:05;14.00;83.10
52963;DHT22;38827;53.024;6.596;2023-05-23T01:53:32;14.00;83.20
52963;DHT22;38827;53.024;6.596;2023-05-23T01:55:59;14.00;83.20
52963;DHT22;38827;53.024;6.596;2023-05-23T01:58:28;13.90;83.00
52963;DHT22;38827;53.024;6.596;2023-05-23T02:00:55;13.90;82.90
52963;DHT22;38827;53.024;6.596;2023-05-23T02:03:23;13.90;82.80
52963;DHT22;38827;53.024;6.596;2023-05-23T02:05:49;13.80;82.90
52963;DHT22;38827;53.024;6.596;2023-05-23T02:08:15;13.80;82.60
52963;DHT22;38827;53.024;6.596;2023-05-23T02:10:41;13.70;82.60
52963;DHT22;38827;53.024;6.596;2023-05-23T02:13:07;13.60;82.70
52963;DHT22;38827;53.024;6.596;2023-05-23T02:15:33;13.60;82.70
52963;DHT22;38827;53.024;6.596;2023-05-23T02:17:58;13.60;82.80
52963;DHT22;38827;53.024;6.596;2023-05-23T02:20:24;13.50;82.80
52963;DHT22;38827;53.024;6.596;2023-05-23T02:22:50;13.50;82.70
52963;DHT22;38827;53.024;6.596;2023-05-23T02:25:16;13.50;82.80
52963;DHT22;38827;53.024;6.596;2023-05-23T02:27:41;13.40;82.80
52963;DHT22;38827;53.024;6.596;2023-05-23T02:30:07;13.40;82.70
52963;DHT22;38827;53.024;6.596;2023-05-23T02:32:33;13.30;83.00
52963;DHT22;38827;53.024;6.596;2023-05-23T02:35:00;13.30;83.00
52963;DHT22;38827;53.024;6.596;2023-05-23T02:37:26;13.30;83.10
52963;DHT22;38827;53.024;6.596;2023-05-23T02:39:51;13.30;83.00
52963;DHT22;38827;53.024;6.596;2023-05-23T02:42:17;13.30;83.10
52963;DHT22;38827;53.024;6.596;2023-05-23T02:44:43;13.30;83.30
52963;DHT22;38827;53.024;6.596;2023-05-23T02:47:09;13.30;83.20
52963;DHT22;38827;53.024;6.596;2023-05-23T02:49:35;13.30;83.40
52963;DHT22;38827;53.024;6.596;2023-05-23T02:52:00;13.20;83.30
52963;DHT22;38827;53.024;6.596;2023-05-23T02:54:26;13.20;83.40
52963;DHT22;38827;53.024;6.596;2023-05-23T02:56:52;13.20;83.30
52963;DHT22;38827;53.024;6.596;2023-05-23T02:59:20;13.10;83.20
52963;DHT22;38827;53.024;6.596;2023-05-23T03:01:52;13.20;83.50
52963;DHT22;38827;53.024;6.596;2023-05-23T03:04:18;13.10;83.40
52963;DHT22;38827;53.024;6.596;2023-05-23T03:06:44;13.10;83.30
52963;DHT22;38827;53.024;6.596;2023-05-23T03:09:10;13.10;83.30
52963;DHT22;38827;53.024;6.596;2023-05-23T03:11:36;13.00;83.20
52963;DHT22;38827;53.024;6.596;2023-05-23T03:24:28;12.90;83.00
52963;DHT22;38827;53.024;6.596;2023-05-23T03:26:56;12.90;83.20
52963;DHT22;38827;53.024;6.596;2023-05-23T03:29:40;12.90;83.20
52963;DHT22;38827;53.024;6.596;2023-05-23T03:32:06;12.90;83.00
52963;DHT22;38827;53.024;6.596;2023-05-23T03:34:32;12.90;83.00
52963;DHT22;38827;53.024;6.596;2023-05-23T03:36:58;12.90;82.90
52963;DHT22;38827;53.024;6.596;2023-05-23T03:39:24;12.90;82.70
52963;DHT22;38827;53.024;6.596;2023-05-23T03:41:50;12.90;82.90
52963;DHT22;38827;53.024;6.596;2023-05-23T03:44:15;12.90;82.90
52963;DHT22;38827;53.024;6.596;2023-05-23T03:46:41;12.90;82.80
52963;DHT22;38827;53.024;6.596;2023-05-23T03:49:07;12.90;82.80
52963;DHT22;38827;53.024;6.596;2023-05-23T03:51:33;12.80;82.60
52963;DHT22;38827;53.024;6.596;2023-05-23T03:53:58;12.80;82.60
52963;DHT22;38827;53.024;6.596;2023-05-23T03:56:24;12.80;82.70
52963;DHT22;38827;53.024;6.596;2023-05-23T03:58:50;12.80;82.80
52963;DHT22;38827;53.024;6.596;2023-05-23T04:01:19;12.80;82.80
52963;DHT22;38827;53.024;6.596;2023-05-23T04:03:45;12.80;82.80
52963;DHT22;38827;53.024;6.596;2023-05-23T04:06:14;12.80;82.90
52963;DHT22;38827;53.024;6.596;2023-05-23T04:08:41;12.80;83.10
52963;DHT22;38827;53.024;6.596;2023-05-23T04:11:08;12.80;83.10
52963;DHT22;38827;53.024;6.596;2023-05-23T04:13:33;12.70;83.00
52963;DHT22;38827;53.024;6.596;2023-05-23T04:16:00;12.70;83.20
52963;DHT22;38827;53.024;6.596;2023-05-23T04:18:31;12.70;83.20
52963;DHT22;38827;53.024;6.596;2023-05-23T04:21:00;12.70;83.20
52963;DHT22;38827;53.024;6.596;2023-05-23T04:23:26;12.70;83.30
52963;DHT22;38827;53.024;6.596;2023-05-23T04:38:47;12.60;82.70
52963;DHT22;38827;53.024;6.596;2023-05-23T04:41:13;12.60;82.70
52963;DHT22;38827;53.024;6.596;2023-05-23T04:43:41;12.50;82.60
52963;DHT22;38827;53.024;6.596;2023-05-23T04:46:10;12.50;82.40
52963;DHT22;38827;53.024;6.596;2023-05-23T04:48:38;12.60;82.40
52963;DHT22;38827;53.024;6.596;2023-05-23T04:51:04;12.60;82.40
52963;DHT22;38827;53.024;6.596;2023-05-23T04:53:33;12.60;82.40
52963;DHT22;38827;53.024;6.596;2023-05-23T04:55:59;12.60;82.10
52963;DHT22;38827;53.024;6.596;2023-05-23T04:58:25;12.60;82.10
52963;DHT22;38827;53.024;6.596;2023-05-23T05:00:54;12.60;82.20
52963;DHT22;38827;53.024;6.596;2023-05-23T05:03:22;12.60;82.10
52963;DHT22;38827;53.024;6.596;2023-05-23T05:05:49;12.60;82.10
52963;DHT22;38827;53.024;6.596;2023-05-23T05:08:15;12.60;82.00
52963;DHT22;38827;53.024;6.596;2023-05-23T05:10:47;12.50;81.80
52963;DHT22;38827;53.024;6.596;2023-05-23T05:13:16;12.50;81.70
52963;DHT22;38827;53.024;6.596;2023-05-23T05:18:10;12.50;81.80
52963;DHT22;38827;53.024;6.596;2023-05-23T05:23:43;12.40;81.90
52963;DHT22;38827;53.024;6.596;2023-05-23T05:26:09;12.30;82.00
52963;DHT22;38827;53.024;6.596;2023-05-23T05:28:44;12.30;82.20
52963;DHT22;38827;53.024;6.596;2023-05-23T05:31:10;12.30;82.10
52963;DHT22;38827;53.024;6.596;2023-05-23T05:33:40;12.20;82.30
52963;DHT22;38827;53.024;6.596;2023-05-23T05:36:06;12.20;82.30
52963;DHT22;38827;53.024;6.596;2023-05-23T05:38:35;12.20;82.10
52963;DHT22;38827;53.024;6.596;2023-05-23T05:41:00;12.20;82.20
52963;DHT22;38827;53.024;6.596;2023-05-23T05:43:26;12.10;82.00
52963;DHT22;38827;53.024;6.596;2023-05-23T05:45:52;12.10;81.80
52963;DHT22;38827;53.024;6.596;2023-05-23T05:48:18;12.10;81.50
52963;DHT22;38827;53.024;6.596;2023-05-23T05:50:43;12.00;81.30
52963;DHT22;38827;53.024;6.596;2023-05-23T05:53:13;12.00;81.30
52963;DHT22;38827;53.024;6.596;2023-05-23T05:55:38;12.00;81.20
52963;DHT22;38827;53.024;6.596;2023-05-23T05:58:04;12.10;81.00
52963;DHT22;38827;53.024;6.596;2023-05-23T06:00:30;12.10;80.90
52963;DHT22;38827;53.024;6.596;2023-05-23T06:02:56;12.10;80.60
52963;DHT22;38827;53.024;6.596;2023-05-23T06:05:22;12.10;80.50
52963;DHT22;38827;53.024;6.596;2023-05-23T06:07:49;12.10;80.30
52963;DHT22;38827;53.024;6.596;2023-05-23T06:10:15;12.10;79.80
52963;DHT22;38827;53.024;6.596;2023-05-23T06:12:41;12.10;79.60
52963;DHT22;38827;53.024;6.596;2023-05-23T06:15:09;12.20;79.30
52963;DHT22;38827;53.024;6.596;2023-05-23T06:17:34;12.20;79.20
52963;DHT22;38827;53.024;6.596;2023-05-23T06:20:00;12.20;79.00
52963;DHT22;38827;53.024;6.596;2023-05-23T06:22:29;12.20;79.00
52963;DHT22;38827;53.024;6.596;2023-05-23T06:24:55;12.20;78.70
52963;DHT22;38827;53.024;6.596;2023-05-23T06:27:22;12.20;78.70
52963;DHT22;38827;53.024;6.596;2023-05-23T06:29:47;12.20;78.40
52963;DHT22;38827;53.024;6.596;2023-05-23T06:32:13;12.10;78.20
52963;DHT22;38827;53.024;6.596;2023-05-23T06:34:38;12.10;78.20
52963;DHT22;38827;53.024;6.596;2023-05-23T06:37:04;12.10;78.20
52963;DHT22;38827;53.024;6.596;2023-05-23T06:39:30;12.10;78.30
52963;DHT22;38827;53.024;6.596;2023-05-23T06:41:55;12.10;78.20
52963;DHT22;38827;53.024;6.596;2023-05-23T06:44:21;12.10;77.90
52963;DHT22;38827;53.024;6.596;2023-05-23T06:46:47;12.10;77.30
52963;DHT22;38827;53.024;6.596;2023-05-23T06:49:15;12.10;77.00
52963;DHT22;38827;53.024;6.596;2023-05-23T06:51:40;12.10;76.60
52963;DHT22;38827;53.024;6.596;2023-05-23T06:54:06;12.10;76.10
52963;DHT22;38827;53.024;6.596;2023-05-23T06:56:32;12.10;76.00
52963;DHT22;38827;53.024;6.596;2023-05-23T07:04:17;12.40;74.20
52963;DHT22;38827;53.024;6.596;2023-05-23T07:06:57;12.60;73.40
52963;DHT22;38827;53.024;6.596;2023-05-23T07:09:23;12.70;73.10
52963;DHT22;38827;53.024;6.596;2023-05-23T07:11:50;12.70;72.50
52963;DHT22;38827;53.024;6.596;2023-05-23T07:14:15;12.70;70.40
52963;DHT22;38827;53.024;6.596;2023-05-23T07:16:41;12.70;72.00
52963;DHT22;38827;53.024;6.596;2023-05-23T07:19:08;12.70;71.70
52963;DHT22;38827;53.024;6.596;2023-05-23T07:21:37;12.80;71.30
52963;DHT22;38827;53.024;6.596;2023-05-23T07:24:05;12.90;70.80
52963;DHT22;38827;53.024;6.596;2023-05-23T07:26:31;12.90;70.30
52963;DHT22;38827;53.024;6.596;2023-05-23T07:28:58;12.90;70.00
52963;DHT22;38827;53.024;6.596;2023-05-23T07:31:23;12.90;69.80
52963;DHT22;38827;53.024;6.596;2023-05-23T07:33:52;12.90;69.70
52963;DHT22;38827;53.024;6.596;2023-05-23T07:36:18;12.90;69.30
52963;DHT22;38827;53.024;6.596;2023-05-23T07:38:46;12.80;69.30
52963;DHT22;38827;53.024;6.596;2023-05-23T07:41:12;12.70;69.20
52963;DHT22;38827;53.024;6.596;2023-05-23T07:43:38;12.70;69.00
52963;DHT22;38827;53.024;6.596;2023-05-23T07:46:04;12.70;69.20
52963;DHT22;38827;53.024;6.596;2023-05-23T07:48:39;12.70;69.10
52963;DHT22;38827;53.024;6.596;2023-05-23T07:51:05;12.70;68.60
52963;DHT22;38827;53.024;6.596;2023-05-23T07:53:33;12.70;68.70
52963;DHT22;38827;53.024;6.596;2023-05-23T07:56:00;12.80;68.70
52963;DHT22;38827;53.024;6.596;2023-05-23T07:58:25;12.80;68.50
52963;DHT22;38827;53.024;6.596;2023-05-23T08:00:51;12.70;68.30
52963;DHT22;38827;53.024;6.596;2023-05-23T08:03:17;12.70;68.30
52963;DHT22;38827;53.024;6.596;2023-05-23T08:05:43;12.80;68.40
52963;DHT22;38827;53.024;6.596;2023-05-23T08:08:09;12.90;67.90
52963;DHT22;38827;53.024;6.596;2023-05-23T08:10:36;12.90;67.50
52963;DHT22;38827;53.024;6.596;2023-05-23T08:13:04;13.00;67.10
52963;DHT22;38827;53.024;6.596;2023-05-23T08:15:32;13.10;66.60
52963;DHT22;38827;53.024;6.596;2023-05-23T08:17:58;13.20;66.10
52963;DHT22;38827;53.024;6.596;2023-05-23T08:20:25;13.30;66.00
52963;DHT22;38827;53.024;6.596;2023-05-23T08:23:02;13.40;66.10
52963;DHT22;38827;53.024;6.596;2023-05-23T08:25:30;13.40;65.90
52963;DHT22;38827;53.024;6.596;2023-05-23T08:27:58;13.50;65.70
52963;DHT22;38827;53.024;6.596;2023-05-23T08:30:26;13.60;65.60
52963;DHT22;38827;53.024;6.596;2023-05-23T08:32:58;13.70;65.40
52963;DHT22;38827;53.024;6.596;2023-05-23T08:35:25;13.80;64.90
52963;DHT22;38827;53.024;6.596;2023-05-23T08:37:56;13.80;63.90
52963;DHT22;38827;53.024;6.596;2023-05-23T08:40:23;13.90;63.60
52963;DHT22;38827;53.024;6.596;2023-05-23T08:42:51;14.00;62.70
52963;DHT22;38827;53.024;6.596;2023-05-23T08:45:17;14.20;62.40
52963;DHT22;38827;53.024;6.596;2023-05-23T08:47:44;14.50;62.00
52963;DHT22;38827;53.024;6.596;2023-05-23T08:50:14;14.90;61.90
52963;DHT22;38827;53.024;6.596;2023-05-23T08:52:54;15.30;59.40
52963;DHT22;38827;53.024;6.596;2023-05-23T08:55:24;15.70;60.10
52963;DHT22;38827;53.024;6.596;2023-05-23T08:57:58;16.00;58.80
52963;DHT22;38827;53.024;6.596;2023-05-23T09:00:25;16.10;57.70
52963;DHT22;38827;53.024;6.596;2023-05-23T09:02:51;15.90;57.00
52963;DHT22;38827;53.024;6.596;2023-05-23T09:05:19;15.70;57.60
52963;DHT22;38827;53.024;6.596;2023-05-23T09:07:47;15.60;57.80
52963;DHT22;38827;53.024;6.596;2023-05-23T09:10:14;15.70;57.70
52963;DHT22;38827;53.024;6.596;2023-05-23T09:12:44;15.90;57.70
52963;DHT22;38827;53.024;6.596;2023-05-23T09:15:12;16.20;57.20
52963;DHT22;38827;53.024;6.596;2023-05-23T09:17:38;16.40;56.40
52963;DHT22;38827;53.024;6.596;2023-05-23T09:20:23;16.40;56.40
52963;DHT22;38827;53.024;6.596;2023-05-23T09:22:54;16.40;54.50
52963;DHT22;38827;53.024;6.596;2023-05-23T09:25:21;16.30;55.40
52963;DHT22;38827;53.024;6.596;2023-05-23T09:30:22;16.30;55.10
52963;DHT22;38827;53.024;6.596;2023-05-23T09:32:59;16.50;55.30
52963;DHT22;38827;53.024;6.596;2023-05-23T09:35:45;16.70;54.20
52963;DHT22;38827;53.024;6.596;2023-05-23T09:38:11;16.70;54.60
52963;DHT22;38827;53.024;6.596;2023-05-23T09:40:44;16.70;54.00
52963;DHT22;38827;53.024;6.596;2023-05-23T09:43:09;16.90;53.70
52963;DHT22;38827;53.024;6.596;2023-05-23T09:45:35;17.00;53.30
52963;DHT22;38827;53.024;6.596;2023-05-23T09:48:01;17.10;52.60
52963;DHT22;38827;53.024;6.596;2023-05-23T09:50:32;17.40;52.70
52963;DHT22;38827;53.024;6.596;2023-05-23T09:52:58;17.80;52.40
52963;DHT22;38827;53.024;6.596;2023-05-23T09:55:24;18.00;51.90
52963;DHT22;38827;53.024;6.596;2023-05-23T09:57:52;18.10;51.30
52963;DHT22;38827;53.024;6.596;2023-05-23T10:00:21;17.90;50.80
52963;DHT22;38827;53.024;6.596;2023-05-23T10:03:14;17.70;51.00
52963;DHT22;38827;53.024;6.596;2023-05-23T10:05:49;17.80;50.50
52963;DHT22;38827;53.024;6.596;2023-05-23T10:08:26;17.90;50.80
52963;DHT22;38827;53.024;6.596;2023-05-23T10:13:27;17.70;49.90
52963;DHT22;38827;53.024;6.596;2023-05-23T10:16:03;17.60;50.30
52963;DHT22;38827;53.024;6.596;2023-05-23T10:18:36;17.50;50.90
52963;DHT22;38827;53.024;6.596;2023-05-23T10:21:12;17.40;50.90
52963;DHT22;38827;53.024;6.596;2023-05-23T10:23:41;17.20;50.20
52963;DHT22;38827;53.024;6.596;2023-05-23T10:26:07;17.10;50.90
52963;DHT22;38827;53.024;6.596;2023-05-23T10:28:33;17.20;49.90
52963;DHT22;38827;53.024;6.596;2023-05-23T10:30:59;17.40;50.60
52963;DHT22;38827;53.024;6.596;2023-05-23T10:33:26;17.70;49.50
52963;DHT22;38827;53.024;6.596;2023-05-23T10:39:32;17.90;48.10
52963;DHT22;38827;53.024;6.596;2023-05-23T10:42:09;17.90;48.90
52963;DHT22;38827;53.024;6.596;2023-05-23T10:44:38;17.80;49.40
52963;DHT22;38827;53.024;6.596;2023-05-23T10:47:04;17.60;49.70
52963;DHT22;38827;53.024;6.596;2023-05-23T10:49:51;17.40;50.00
52963;DHT22;38827;53.024;6.596;2023-05-23T10:52:17;17.80;49.50
52963;DHT22;38827;53.024;6.596;2023-05-23T10:54:48;17.90;49.30
52963;DHT22;38827;53.024;6.596;2023-05-23T10:57:34;17.90;48.80
52963;DHT22;38827;53.024;6.596;2023-05-23T11:00:00;17.90;48.20
52963;DHT22;38827;53.024;6.596;2023-05-23T11:02:27;17.80;49.00
52963;DHT22;38827;53.024;6.596;2023-05-23T11:05:21;17.70;49.20
52963;DHT22;38827;53.024;6.596;2023-05-23T11:11:01;17.40;49.20
52963;DHT22;38827;53.024;6.596;2023-05-23T11:18:49;17.20;49.80
52963;DHT22;38827;53.024;6.596;2023-05-23T11:21:15;17.90;48.00
52963;DHT22;38827;53.024;6.596;2023-05-23T11:23:42;18.10;47.50
52963;DHT22;38827;53.024;6.596;2023-05-23T11:26:34;17.90;47.50
52963;DHT22;38827;53.024;6.596;2023-05-23T11:28:59;17.60;47.50
52963;DHT22;38827;53.024;6.596;2023-05-23T11:31:28;17.30;49.00
52963;DHT22;38827;53.024;6.596;2023-05-23T11:33:55;17.00;49.40
52963;DHT22;38827;53.024;6.596;2023-05-23T11:36:21;17.00;49.20
52963;DHT22;38827;53.024;6.596;2023-05-23T11:38:49;17.70;48.10
52963;DHT22;38827;53.024;6.596;2023-05-23T11:41:17;18.50;46.70
52963;DHT22;38827;53.024;6.596;2023-05-23T11:43:52;18.80;45.80
52963;DHT22;38827;53.024;6.596;2023-05-23T11:46:18;18.80;44.90
52963;DHT22;38827;53.024;6.596;2023-05-23T11:48:47;18.50;46.00
52963;DHT22;38827;53.024;6.596;2023-05-23T11:51:14;18.20;46.70
52963;DHT22;38827;53.024;6.596;2023-05-23T11:53:41;17.90;47.20
52963;DHT22;38827;53.024;6.596;2023-05-23T11:56:07;17.90;47.10
52963;DHT22;38827;53.024;6.596;2023-05-23T11:58:35;18.30;46.00
52963;DHT22;38827;53.024;6.596;2023-05-23T12:05:20;18.40;45.50
52963;DHT22;38827;53.024;6.596;2023-05-23T12:07:47;18.00;46.80
52963;DHT22;38827;53.024;6.596;2023-05-23T12:10:14;17.80;47.40
52963;DHT22;38827;53.024;6.596;2023-05-23T12:12:41;17.50;47.70
52963;DHT22;38827;53.024;6.596;2023-05-23T12:15:08;17.40;47.50
52963;DHT22;38827;53.024;6.596;2023-05-23T12:17:38;17.80;46.60
52963;DHT22;38827;53.024;6.596;2023-05-23T12:20:10;18.30;45.60
52963;DHT22;38827;53.024;6.596;2023-05-23T12:22:36;18.40;45.60
52963;DHT22;38827;53.024;6.596;2023-05-23T12:25:02;18.30;46.10
52963;DHT22;38827;53.024;6.596;2023-05-23T12:27:30;18.50;45.40
52963;DHT22;38827;53.024;6.596;2023-05-23T12:30:10;18.60;43.80
52963;DHT22;38827;53.024;6.596;2023-05-23T12:32:44;18.30;44.80
52963;DHT22;38827;53.024;6.596;2023-05-23T12:35:13;18.00;45.70
52963;DHT22;38827;53.024;6.596;2023-05-23T12:37:45;18.10;45.80
52963;DHT22;38827;53.024;6.596;2023-05-23T12:40:16;18.40;45.10
52963;DHT22;38827;53.024;6.596;2023-05-23T12:42:57;18.30;44.90
52963;DHT22;38827;53.024;6.596;2023-05-23T12:45:23;18.40;44.30
52963;DHT22;38827;53.024;6.596;2023-05-23T12:47:49;18.70;44.40
52963;DHT22;38827;53.024;6.596;2023-05-23T12:50:19;18.80;44.60
52963;DHT22;38827;53.024;6.596;2023-05-23T12:52:45;18.90;44.40
52963;DHT22;38827;53.024;6.596;2023-05-23T12:55:12;19.00;43.60
52963;DHT22;38827;53.024;6.596;2023-05-23T12:57:37;19.00;44.60
52963;DHT22;38827;53.024;6.596;2023-05-23T13:00:07;18.80;44.20
52963;DHT22;38827;53.024;6.596;2023-05-23T13:02:33;18.50;45.00
52963;DHT22;38827;53.024;6.596;2023-05-23T13:04:59;18.10;45.70
52963;DHT22;38827;53.024;6.596;2023-05-23T13:07:25;17.90;46.10
52963;DHT22;38827;53.024;6.596;2023-05-23T13:09:51;18.10;46.30
52963;DHT22;38827;53.024;6.596;2023-05-23T13:12:28;18.40;45.60
52963;DHT22;38827;53.024;6.596;2023-05-23T13:14:54;18.80;44.80
52963;DHT22;38827;53.024;6.596;2023-05-23T13:17:19;18.90;44.10
52963;DHT22;38827;53.024;6.596;2023-05-23T13:19:45;18.90;43.60
52963;DHT22;38827;53.024;6.596;2023-05-23T13:22:11;18.90;43.80
52963;DHT22;38827;53.024;6.596;2023-05-23T13:24:46;18.90;44.10
52963;DHT22;38827;53.024;6.596;2023-05-23T13:27:20;18.70;44.40
52963;DHT22;38827;53.024;6.596;2023-05-23T13:29:53;18.30;44.90
52963;DHT22;38827;53.024;6.596;2023-05-23T13:32:23;18.20;45.10
52963;DHT22;38827;53.024;6.596;2023-05-23T13:35:20;18.40;44.70
52963;DHT22;38827;53.024;6.596;2023-05-23T13:37:55;18.40;43.60
52963;DHT22;38827;53.024;6.596;2023-05-23T13:44:06;18.30;43.40
52963;DHT22;38827;53.024;6.596;2023-05-23T13:46:53;18.20;43.60
52963;DHT22;38827;53.024;6.596;2023-05-23T13:49:47;18.40;44.00
52963;DHT22;38827;53.024;6.596;2023-05-23T13:54:48;18.90;42.40
52963;DHT22;38827;53.024;6.596;2023-05-23T13:57:14;19.00;42.00
52963;DHT22;38827;53.024;6.596;2023-05-23T13:59:49;19.10;41.70
52963;DHT22;38827;53.024;6.596;2023-05-23T14:02:14;19.10;41.40
52963;DHT22;38827;53.024;6.596;2023-05-23T14:07:27;18.60;42.00
52963;DHT22;38827;53.024;6.596;2023-05-23T14:09:53;18.50;42.80
52963;DHT22;38827;53.024;6.596;2023-05-23T14:12:18;18.50;43.20
52963;DHT22;38827;53.024;6.596;2023-05-23T14:14:53;18.70;43.10
52963;DHT22;38827;53.024;6.596;2023-05-23T14:17:19;18.70;43.00
52963;DHT22;38827;53.024;6.596;2023-05-23T14:19:46;18.80;41.70
52963;DHT22;38827;53.024;6.596;2023-05-23T14:22:11;18.70;41.50
52963;DHT22;38827;53.024;6.596;2023-05-23T14:24:37;18.60;41.20
52963;DHT22;38827;53.024;6.596;2023-05-23T14:29:38;18.50;42.90
52963;DHT22;38827;53.024;6.596;2023-05-23T14:32:06;18.50;42.20
52963;DHT22;38827;53.024;6.596;2023-05-23T14:34:32;18.40;42.50
52963;DHT22;38827;53.024;6.596;2023-05-23T14:36:59;18.10;42.80
52963;DHT22;38827;53.024;6.596;2023-05-23T14:39:25;17.90;43.40
52963;DHT22;38827;53.024;6.596;2023-05-23T14:41:53;17.70;43.60
52963;DHT22;38827;53.024;6.596;2023-05-23T14:44:19;17.70;43.70
52963;DHT22;38827;53.024;6.596;2023-05-23T14:46:45;17.70;43.60
52963;DHT22;38827;53.024;6.596;2023-05-23T14:49:17;17.70;43.90
52963;DHT22;38827;53.024;6.596;2023-05-23T14:51:43;17.80;44.00
52963;DHT22;38827;53.024;6.596;2023-05-23T14:54:08;18.00;43.50
52963;DHT22;38827;53.024;6.596;2023-05-23T14:56:36;18.10;43.40
52963;DHT22;38827;53.024;6.596;2023-05-23T14:59:08;18.30;42.40
52963;DHT22;38827;53.024;6.596;2023-05-23T15:01:34;18.50;41.50
52963;DHT22;38827;53.024;6.596;2023-05-23T15:04:00;18.50;41.20
52963;DHT22;38827;53.024;6.596;2023-05-23T15:06:26;18.30;41.10
52963;DHT22;38827;53.024;6.596;2023-05-23T15:08:51;18.20;41.40
52963;DHT22;38827;53.024;6.596;2023-05-23T15:11:17;18.00;41.80
52963;DHT22;38827;53.024;6.596;2023-05-23T15:13:43;17.80;42.20
52963;DHT22;38827;53.024;6.596;2023-05-23T15:16:09;17.70;42.40
52963;DHT22;38827;53.024;6.596;2023-05-23T15:18:34;17.60;42.80
52963;DHT22;38827;53.024;6.596;2023-05-23T15:21:03;17.40;43.10
52963;DHT22;38827;53.024;6.596;2023-05-23T15:23:32;17.30;43.40
52963;DHT22;38827;53.024;6.596;2023-05-23T15:25:58;17.10;43.30
52963;DHT22;38827;53.024;6.596;2023-05-23T15:28:23;17.00;43.70
52963;DHT22;38827;53.024;6.596;2023-05-23T15:30:49;17.00;43.70
52963;DHT22;38827;53.024;6.596;2023-05-23T15:33:15;17.00;43.60
52963;DHT22;38827;53.024;6.596;2023-05-23T15:35:41;17.00;43.50
52963;DHT22;38827;53.024;6.596;2023-05-23T15:38:07;16.80;43.10
52963;DHT22;38827;53.024;6.596;2023-05-23T15:40:32;16.50;43.70
52963;DHT22;38827;53.024;6.596;2023-05-23T15:42:58;16.30;44.50
52963;DHT22;38827;53.024;6.596;2023-05-23T15:45:24;16.20;45.30
52963;DHT22;38827;53.024;6.596;2023-05-23T15:47:49;16.20;45.70
52963;DHT22;38827;53.024;6.596;2023-05-23T15:56:03;16.30;43.90
52963;DHT22;38827;53.024;6.596;2023-05-23T15:59:08;16.20;43.30
52963;DHT22;38827;53.024;6.596;2023-05-23T16:04:19;15.70;45.50
52963;DHT22;38827;53.024;6.596;2023-05-23T16:06:45;15.50;46.00
52963;DHT22;38827;53.024;6.596;2023-05-23T16:09:13;15.40;46.30
52963;DHT22;38827;53.024;6.596;2023-05-23T16:11:45;15.40;46.30
52963;DHT22;38827;53.024;6.596;2023-05-23T16:14:11;15.40;45.80
52963;DHT22;38827;53.024;6.596;2023-05-23T16:16:37;15.30;46.00
52963;DHT22;38827;53.024;6.596;2023-05-23T16:19:10;15.30;45.90
52963;DHT22;38827;53.024;6.596;2023-05-23T16:21:44;15.30;46.20
52963;DHT22;38827;53.024;6.596;2023-05-23T16:24:25;15.40;45.80
52963;DHT22;38827;53.024;6.596;2023-05-23T16:27:07;15.30;46.00
52963;DHT22;38827;53.024;6.596;2023-05-23T16:29:33;15.20;46.50
52963;DHT22;38827;53.024;6.596;2023-05-23T16:31:58;15.10;46.70
52963;DHT22;38827;53.024;6.596;2023-05-23T16:34:27;15.00;46.40
52963;DHT22;38827;53.024;6.596;2023-05-23T16:36:53;14.90;46.20
52963;DHT22;38827;53.024;6.596;2023-05-23T16:39:28;14.80;46.00
52963;DHT22;38827;53.024;6.596;2023-05-23T16:42:00;14.70;46.80
52963;DHT22;38827;53.024;6.596;2023-05-23T16:44:26;14.60;47.10
52963;DHT22;38827;53.024;6.596;2023-05-23T16:58:20;14.30;47.50
52963;DHT22;38827;53.024;6.596;2023-05-23T17:01:18;14.20;47.80
52963;DHT22;38827;53.024;6.596;2023-05-23T17:03:50;14.10;48.30
52963;DHT22;38827;53.024;6.596;2023-05-23T17:10:04;13.90;49.10
52963;DHT22;38827;53.024;6.596;2023-05-23T17:12:30;13.70;49.20
52963;DHT22;38827;53.024;6.596;2023-05-23T17:14:56;13.70;49.80
52963;DHT22;38827;53.024;6.596;2023-05-23T17:17:22;13.70;50.20